Time;durP1;ratioP1;P1;durP2;ratioP2;P2;SDS_P1;SDS_P2;PMS_P1;PMS_P2;Temp;Humidity;BMP_temperature;BMP_pressure;BME280_temperature;BME280_humidity;BME280_pressure;Samples;Min_cycle;Max_cycle;Signal;HPM_P1;HPM_P2
2024/04/19 00:00:31;;;;;;;10.23;3.85;;;14.00;51.10;;;;;;5356733;26;20015;-48
2024/04/19 00:03:16;;;;;;;5.28;2.78;;;14.00;51.20;;;;;;5373720;26;20137;-50
2024/04/19 00:06:01;;;;;;;8.25;2.63;;;13.90;51.10;;;;;;5391475;26;20125;-51
2024/04/19 00:08:51;;;;;;;6.60;2.47;;;14.00;51.30;;;;;;5386468;26;20037;-49
2024/04/19 00:11:36;;;;;;;6.35;2.75;;;13.90;51.40;;;;;;5384328;26;20023;-48
2024/04/19 00:14:20;;;;;;;5.03;2.35;;;13.90;51.20;;;;;;5357485;26;20014;-48
2024/04/19 00:17:13;;;;;;;5.43;2.55;;;13.90;51.30;;;;;;5357415;26;20196;-49
2024/04/19 00:19:58;;;;;;;5.30;2.72;;;13.90;51.30;;;;;;5359726;26;20412;-49
2024/04/19 00:22:43;;;;;;;6.32;2.40;;;14.00;51.60;;;;;;5346610;26;20023;-47
2024/04/19 00:25:28;;;;;;;5.45;2.80;;;13.90;51.40;;;;;;5381576;26;20022;-46
2024/04/19 00:28:13;;;;;;;7.30;2.20;;;13.90;51.50;;;;;;5350285;26;20013;-48
2024/04/19 00:30:58;;;;;;;5.55;3.13;;;13.90;51.50;;;;;;5380963;26;20785;-51
2024/04/19 00:33:44;;;;;;;6.45;2.40;;;13.90;51.60;;;;;;5356096;26;20026;-47
2024/04/19 00:36:29;;;;;;;4.70;3.30;;;13.90;51.70;;;;;;5360296;26;20049;-47
2024/04/19 00:39:14;;;;;;;4.78;2.35;;;13.90;51.70;;;;;;5384185;26;20085;-47
2024/04/19 00:41:58;;;;;;;7.53;2.75;;;13.90;51.80;;;;;;5385427;26;20010;-49
2024/04/19 00:44:44;;;;;;;6.68;2.95;;;13.90;51.80;;;;;;5381816;26;20035;-50
2024/04/19 00:47:29;;;;;;;7.55;2.50;;;13.90;51.90;;;;;;5355613;26;20476;-48
2024/04/19 00:50:15;;;;;;;5.50;2.35;;;13.90;52.00;;;;;;5382589;26;20481;-48
2024/04/19 00:53:01;;;;;;;7.28;3.05;;;13.90;52.10;;;;;;5372626;26;20015;-50
2024/04/19 00:55:46;;;;;;;8.75;3.42;;;13.90;52.10;;;;;;5378523;26;20018;-50
2024/04/19 00:58:31;;;;;;;7.95;3.08;;;13.80;51.90;;;;;;5385068;26;20007;-48
2024/04/19 01:01:17;;;;;;;11.23;4.47;;;13.80;52.00;;;;;;5375519;26;20057;-52
2024/04/19 01:04:02;;;;;;;9.20;4.55;;;13.80;52.10;;;;;;5384112;26;20015;-51
2024/04/19 01:06:47;;;;;;;7.85;2.95;;;13.80;52.10;;;;;;5377863;26;20082;-49
2024/04/19 01:09:31;;;;;;;7.78;3.63;;;13.80;52.20;;;;;;5380049;26;20162;-49
2024/04/19 01:12:17;;;;;;;7.97;3.53;;;13.80;52.20;;;;;;5382504;26;20082;-50
2024/04/19 01:15:01;;;;;;;5.95;2.97;;;13.80;52.30;;;;;;5367219;26;20031;-49
2024/04/19 01:17:46;;;;;;;9.35;3.28;;;13.80;52.40;;;;;;5338732;26;20608;-49
2024/04/19 01:20:31;;;;;;;7.25;3.70;;;13.80;52.40;;;;;;5347524;26;20518;-51
2024/04/19 01:23:18;;;;;;;6.65;4.22;;;13.80;52.40;;;;;;5351735;26;20007;-48
2024/04/19 01:26:04;;;;;;;10.18;3.72;;;13.80;52.50;;;;;;5342902;26;20085;-48
2024/04/19 01:28:49;;;;;;;7.85;3.97;;;13.80;52.50;;;;;;5339023;26;20532;-49
2024/04/19 01:31:34;;;;;;;8.10;3.85;;;13.80;52.60;;;;;;5346919;26;20073;-51
2024/04/19 01:34:22;;;;;;;7.80;3.90;;;13.80;52.60;;;;;;5325405;26;20341;-49
2024/04/19 01:37:06;;;;;;;10.77;4.50;;;13.80;52.70;;;;;;5346722;26;20345;-50
2024/04/19 01:39:51;;;;;;;9.27;4.50;;;13.80;52.70;;;;;;5338400;26;20082;-47
2024/04/19 01:42:35;;;;;;;9.48;3.83;;;13.70;52.60;;;;;;5322609;26;20023;-49
2024/04/19 01:45:20;;;;;;;7.15;3.60;;;13.70;52.70;;;;;;5350434;26;20038;-48
2024/04/19 01:48:05;;;;;;;8.80;3.83;;;13.70;52.70;;;;;;5325683;26;20022;-49
2024/04/19 01:50:50;;;;;;;9.70;4.68;;;13.70;52.80;;;;;;5351265;26;20446;-50
2024/04/19 01:53:35;;;;;;;7.22;4.15;;;13.70;52.80;;;;;;5344683;26;20059;-50
2024/04/19 01:56:20;;;;;;;7.25;4.25;;;13.70;52.90;;;;;;5349241;26;20606;-50
2024/04/19 01:59:05;;;;;;;9.10;4.13;;;13.70;52.90;;;;;;5350351;26;20088;-48
2024/04/19 02:01:50;;;;;;;7.70;3.78;;;13.60;52.80;;;;;;5317451;26;20081;-47
2024/04/19 02:04:35;;;;;;;10.82;4.40;;;13.70;53.00;;;;;;5350246;26;20019;-50
2024/04/19 02:07:19;;;;;;;10.23;4.20;;;13.60;52.90;;;;;;5338973;26;20770;-49
2024/04/19 02:10:07;;;;;;;10.93;4.95;;;13.60;52.90;;;;;;5349030;26;20023;-51
2024/04/19 02:12:52;;;;;;;7.18;3.60;;;13.60;53.00;;;;;;5322288;26;20027;-53
2024/04/19 02:15:37;;;;;;;7.15;4.88;;;13.60;53.00;;;;;;5372044;26;20027;-50
2024/04/19 02:18:22;;;;;;;11.00;5.30;;;13.60;53.10;;;;;;5382019;26;20644;-48
2024/04/19 02:21:07;;;;;;;6.63;3.78;;;13.60;53.10;;;;;;5383175;26;20072;-48
2024/04/19 02:23:52;;;;;;;11.30;4.30;;;13.60;53.20;;;;;;5382128;26;20609;-50
2024/04/19 02:26:37;;;;;;;9.20;5.00;;;13.60;53.20;;;;;;5407061;26;20548;-50
2024/04/19 02:32:26;;;;;;;6.95;4.07;;;13.60;53.30;;;;;;5378464;26;20462;-46
2024/04/19 02:35:11;;;;;;;6.10;3.58;;;13.60;53.30;;;;;;5378098;26;20748;-49
2024/04/19 02:37:56;;;;;;;9.80;3.67;;;13.60;53.40;;;;;;5372465;26;20006;-49
2024/04/19 02:40:41;;;;;;;5.25;3.17;;;13.50;53.30;;;;;;5376951;26;20481;-48
2024/04/19 02:43:26;;;;;;;8.90;3.63;;;13.60;53.50;;;;;;5412720;26;20126;-48
2024/04/19 02:46:17;;;;;;;7.45;3.92;;;13.50;53.40;;;;;;5383218;26;20650;-49
2024/04/19 02:49:02;;;;;;;7.60;3.50;;;13.50;53.40;;;;;;5384792;26;20557;-48
2024/04/19 02:51:46;;;;;;;8.45;4.30;;;13.50;53.40;;;;;;5375520;26;20026;-50
2024/04/19 02:54:31;;;;;;;11.45;3.88;;;13.50;53.50;;;;;;5384574;26;20113;-49
2024/04/19 02:57:16;;;;;;;9.20;3.83;;;13.50;53.50;;;;;;5372834;26;20574;-52
2024/04/19 03:00:02;;;;;;;7.47;3.65;;;13.50;53.60;;;;;;5376680;26;20633;-50
2024/04/19 03:03:01;;;;;;;7.85;4.15;;;13.50;53.60;;;;;;5382293;26;20003;-50
2024/04/19 03:05:46;;;;;;;7.85;4.10;;;13.40;53.40;;;;;;5385405;26;20022;-47
2024/04/19 03:08:31;;;;;;;9.02;3.67;;;13.50;53.70;;;;;;5378993;26;20010;-48
2024/04/19 03:11:15;;;;;;;6.43;3.30;;;13.50;53.70;;;;;;5382005;26;20014;-49
2024/04/19 03:14:00;;;;;;;8.80;4.40;;;13.40;53.50;;;;;;5385064;26;20011;-48
2024/04/19 03:16:45;;;;;;;7.43;3.80;;;13.50;53.80;;;;;;5397268;26;20073;-50
2024/04/19 03:19:29;;;;;;;8.65;4.13;;;13.50;53.80;;;;;;5379426;26;20075;-47
2024/04/19 03:22:14;;;;;;;6.18;3.67;;;13.50;53.90;;;;;;5391548;26;20026;-52
2024/04/19 03:24:59;;;;;;;6.38;3.00;;;13.50;53.90;;;;;;5384917;26;20011;-47
2024/04/19 03:27:44;;;;;;;10.52;4.68;;;13.50;53.90;;;;;;5356572;26;20014;-47
2024/04/19 03:30:33;;;;;;;6.95;3.60;;;13.50;54.00;;;;;;5381411;26;20007;-52
2024/04/19 03:33:17;;;;;;;5.47;2.90;;;13.40;53.80;;;;;;5381289;26;20085;-48
2024/04/19 03:36:05;;;;;;;13.10;3.83;;;13.50;54.10;;;;;;5361881;26;20030;-49
2024/04/19 03:38:50;;;;;;;8.45;3.55;;;13.40;53.90;;;;;;5370741;26;20455;-51
2024/04/19 03:41:37;;;;;;;11.18;3.67;;;13.50;54.10;;;;;;5396571;26;20014;-47
2024/04/19 03:47:25;;;;;;;8.18;3.33;;;13.50;54.20;;;;;;5378284;26;20546;-47
2024/04/19 03:50:10;;;;;;;7.53;2.92;;;13.50;54.10;;;;;;5381331;26;20072;-51
2024/04/19 03:52:59;;;;;;;9.73;3.42;;;13.50;54.20;;;;;;5384693;26;20531;-49
2024/04/19 03:55:46;;;;;;;7.88;3.58;;;13.50;54.20;;;;;;5395296;26;20559;-50
2024/04/19 03:58:30;;;;;;;8.48;3.05;;;13.50;54.20;;;;;;5396223;26;20105;-49
2024/04/19 04:01:15;;;;;;;4.70;2.50;;;13.40;54.10;;;;;;5391919;26;20421;-49
2024/04/19 04:04:00;;;;;;;6.38;2.88;;;13.40;54.70;;;;;;5355534;26;20011;-51
2024/04/19 04:06:45;;;;;;;5.82;2.33;;;13.40;54.10;;;;;;5392883;26;20746;-49
2024/04/19 04:09:29;;;;;;;5.68;2.65;;;13.40;54.10;;;;;;5388747;26;20392;-49
2024/04/19 04:12:14;;;;;;;6.30;2.80;;;13.40;54.20;;;;;;5370473;26;20029;-49
2024/04/19 04:14:59;;;;;;;5.85;2.30;;;13.40;54.20;;;;;;5389790;26;20394;-54
2024/04/19 04:17:43;;;;;;;7.32;3.47;;;13.40;54.20;;;;;;5391538;26;20022;-48
2024/04/19 04:20:28;;;;;;;6.53;2.90;;;13.40;54.30;;;;;;5395474;26;20348;-48
2024/04/19 04:23:12;;;;;;;5.40;2.83;;;13.40;54.30;;;;;;5387985;26;20140;-47
2024/04/19 04:25:58;;;;;;;5.10;2.05;;;13.40;54.30;;;;;;5392156;26;20512;-50
2024/04/19 04:28:42;;;;;;;5.22;2.13;;;13.30;54.20;;;;;;5393497;26;20010;-51
2024/04/19 04:31:28;;;;;;;6.13;2.53;;;13.40;54.40;;;;;;5392788;26;20479;-49
2024/04/19 04:34:12;;;;;;;4.00;2.35;;;13.30;54.30;;;;;;5359674;26;20374;-51
2024/04/19 04:36:57;;;;;;;7.05;2.40;;;13.30;54.30;;;;;;5361287;26;20828;-49
2024/04/19 04:39:42;;;;;;;6.70;2.67;;;13.30;54.40;;;;;;5386009;26;20280;-50
2024/04/19 04:42:27;;;;;;;6.72;3.40;;;13.30;54.40;;;;;;5379547;26;20558;-49
2024/04/19 04:45:11;;;;;;;5.90;2.17;;;13.30;54.40;;;;;;5377553;26;20022;-49
2024/04/19 04:47:56;;;;;;;6.10;2.65;;;13.30;54.50;;;;;;5374379;26;20018;-53
2024/04/19 04:50:41;;;;;;;7.07;2.33;;;13.20;54.40;;;;;;5388710;26;20022;-48
2024/04/19 04:53:26;;;;;;;9.52;3.17;;;13.20;54.50;;;;;;5379956;26;20014;-52
2024/04/19 04:56:12;;;;;;;5.03;2.35;;;13.20;54.60;;;;;;5358170;26;20027;-50
2024/04/19 04:58:57;;;;;;;5.22;2.50;;;13.10;54.50;;;;;;5387188;26;20017;-52
2024/04/19 05:01:42;;;;;;;7.55;2.15;;;13.10;54.50;;;;;;5358161;26;20579;-47
2024/04/19 05:04:26;;;;;;;3.42;2.08;;;13.00;54.40;;;;;;5359818;26;20092;-50
2024/04/19 05:07:11;;;;;;;7.32;2.00;;;13.00;54.50;;;;;;5361838;26;20347;-49
2024/04/19 05:09:56;;;;;;;5.88;1.98;;;13.00;54.50;;;;;;5382700;26;20041;-48
2024/04/19 05:12:41;;;;;;;7.97;2.58;;;13.00;54.60;;;;;;5377207;26;20977;-51
2024/04/19 05:15:25;;;;;;;6.03;1.98;;;13.00;54.70;;;;;;5367265;26;20010;-51
2024/04/19 05:18:10;;;;;;;4.15;2.20;;;12.90;54.50;;;;;;5384025;26;20380;-50
2024/04/19 05:20:54;;;;;;;4.82;2.22;;;12.90;54.60;;;;;;5376982;26;20593;-49
2024/04/19 05:23:39;;;;;;;5.13;2.55;;;12.90;54.60;;;;;;5382963;26;20059;-52
2024/04/19 05:26:25;;;;;;;5.78;2.50;;;12.90;54.70;;;;;;5356782;26;20769;-48
2024/04/19 05:29:11;;;;;;;6.78;2.25;;;12.90;54.70;;;;;;5376557;26;20014;-48
2024/04/19 05:31:56;;;;;;;6.32;2.72;;;12.90;54.70;;;;;;5371495;26;20457;-52
2024/04/19 05:34:42;;;;;;;4.05;1.80;;;12.90;54.70;;;;;;5379605;26;20634;-49
2024/04/19 05:37:26;;;;;;;6.35;1.92;;;12.90;54.70;;;;;;5391656;26;20018;-47
2024/04/19 05:40:11;;;;;;;4.82;2.17;;;12.90;54.70;;;;;;5371751;26;20018;-54
2024/04/19 05:42:56;;;;;;;6.18;2.03;;;12.90;54.80;;;;;;5345403;26;20007;-55
2024/04/19 05:45:42;;;;;;;5.55;1.75;;;12.90;54.80;;;;;;5377560;26;20390;-52
2024/04/19 05:48:28;;;;;;;3.55;1.55;;;13.00;54.90;;;;;;5323874;26;20019;-51
2024/04/19 05:51:12;;;;;;;4.10;1.90;;;13.00;54.90;;;;;;5377813;26;20093;-50
2024/04/19 05:53:57;;;;;;;6.43;1.98;;;12.90;54.70;;;;;;5397197;26;20382;-48
2024/04/19 05:56:41;;;;;;;6.28;2.20;;;12.90;54.70;;;;;;5386285;26;20014;-47
2024/04/19 05:59:27;;;;;;;4.90;2.10;;;13.00;54.90;;;;;;5361507;26;20078;-53
2024/04/19 06:02:11;;;;;;;5.03;2.28;;;12.90;54.80;;;;;;5382316;26;20026;-48
2024/04/19 06:04:56;;;;;;;5.93;1.75;;;12.90;55.00;;;;;;5364093;26;20309;-48
2024/04/19 06:07:41;;;;;;;6.03;1.85;;;13.00;55.60;;;;;;5381580;26;20025;-50
2024/04/19 06:10:26;;;;;;;6.82;2.30;;;13.10;56.10;;;;;;5357854;26;20082;-49
2024/04/19 06:13:11;;;;;;;6.10;2.65;;;13.20;56.40;;;;;;5331868;26;20595;-51
2024/04/19 06:15:55;;;;;;;5.22;1.70;;;13.30;56.60;;;;;;5378715;26;20089;-47
2024/04/19 06:18:40;;;;;;;3.95;1.80;;;13.40;56.80;;;;;;5385852;26;20080;-50
2024/04/19 06:21:25;;;;;;;7.07;3.75;;;13.50;56.90;;;;;;5381257;26;20084;-51
2024/04/19 06:24:10;;;;;;;7.88;3.60;;;13.60;57.20;;;;;;5377353;26;20401;-48
2024/04/19 06:26:54;;;;;;;6.00;3.30;;;13.70;57.30;;;;;;5375719;26;20141;-49
2024/04/19 06:29:39;;;;;;;8.48;3.30;;;13.90;57.60;;;;;;5343841;26;20011;-52
2024/04/19 06:32:24;;;;;;;5.80;3.40;;;14.00;57.60;;;;;;5331948;26;20096;-53
2024/04/19 06:35:09;;;;;;;5.95;3.03;;;14.30;57.90;;;;;;5383650;26;20014;-49
2024/04/19 06:37:53;;;;;;;6.05;3.45;;;14.40;57.80;;;;;;5376401;26;20011;-52
2024/04/19 06:40:38;;;;;;;7.82;3.15;;;14.70;58.00;;;;;;5387770;26;20450;-48
2024/04/19 06:43:23;;;;;;;7.85;4.10;;;15.00;58.00;;;;;;5352486;26;20520;-48
2024/04/19 06:46:08;;;;;;;6.53;3.17;;;15.30;57.90;;;;;;5393043;26;20763;-56
2024/04/19 06:48:53;;;;;;;8.88;2.65;;;15.70;58.00;;;;;;5371853;26;20310;-47
2024/04/19 06:51:38;;;;;;;4.30;1.90;;;16.00;57.80;;;;;;5394869;26;20379;-49
2024/04/19 06:54:23;;;;;;;5.28;2.40;;;16.30;57.80;;;;;;5387251;26;20080;-47
2024/04/19 06:57:08;;;;;;;4.28;2.00;;;16.50;57.50;;;;;;5383841;26;20320;-49
2024/04/19 06:59:52;;;;;;;3.72;2.20;;;16.70;57.30;;;;;;5382105;26;20406;-51
2024/04/19 07:02:37;;;;;;;2.75;1.52;;;17.00;57.40;;;;;;5352292;26;20009;-51
2024/04/19 07:05:22;;;;;;;4.28;1.40;;;17.20;57.30;;;;;;5384245;26;20014;-50
2024/04/19 07:08:07;;;;;;;2.50;1.30;;;17.30;57.00;;;;;;5377995;26;20123;-48
2024/04/19 07:10:52;;;;;;;3.83;1.60;;;17.40;56.80;;;;;;5365728;26;20023;-52
2024/04/19 07:13:37;;;;;;;3.22;1.50;;;17.40;56.80;;;;;;5394696;26;20585;-51
2024/04/19 07:16:22;;;;;;;4.40;1.60;;;17.40;56.80;;;;;;5403445;26;20006;-52
2024/04/19 07:19:07;;;;;;;2.83;1.40;;;17.40;56.90;;;;;;5398809;26;20361;-54
2024/04/19 07:21:52;;;;;;;2.20;1.10;;;17.50;57.00;;;;;;5379265;26;20014;-50
2024/04/19 07:24:37;;;;;;;3.05;1.33;;;17.70;56.90;;;;;;5387763;26;20485;-50
2024/04/19 07:27:22;;;;;;;1.67;1.17;;;17.90;56.70;;;;;;5384026;26;20016;-47
2024/04/19 07:30:08;;;;;;;2.35;1.00;;;18.00;56.40;;;;;;5382871;26;20297;-48
2024/04/19 07:32:53;;;;;;;2.08;1.20;;;18.00;56.30;;;;;;5373576;26;20067;-50
2024/04/19 07:35:38;;;;;;;2.40;1.65;;;18.00;56.30;;;;;;5398437;26;20095;-50
2024/04/19 07:38:22;;;;;;;2.03;1.00;;;18.00;56.30;;;;;;5384116;26;20357;-51
2024/04/19 07:41:08;;;;;;;1.45;1.10;;;18.00;56.20;;;;;;5372638;26;20099;-50
2024/04/19 07:43:54;;;;;;;2.08;1.00;;;18.00;56.10;;;;;;5379151;26;20527;-48
2024/04/19 07:46:41;;;;;;;1.95;0.90;;;18.00;56.10;;;;;;5386512;26;20598;-51
2024/04/19 07:49:26;;;;;;;1.20;1.05;;;18.00;56.10;;;;;;5386928;26;20494;-50
2024/04/19 07:52:10;;;;;;;1.13;0.95;;;17.90;56.00;;;;;;5393672;26;20077;-48
2024/04/19 07:54:55;;;;;;;1.20;0.77;;;17.90;56.00;;;;;;5383968;26;20010;-51
2024/04/19 07:57:41;;;;;;;1.67;0.88;;;17.90;55.90;;;;;;5370945;26;21391;-47
2024/04/19 08:00:25;;;;;;;2.83;0.80;;;17.90;55.80;;;;;;5384875;26;20098;-49
2024/04/19 08:03:10;;;;;;;1.77;0.80;;;17.90;55.60;;;;;;5376400;26;20014;-48
2024/04/19 08:05:55;;;;;;;1.23;0.90;;;18.00;55.60;;;;;;5372224;26;20537;-49
2024/04/19 08:08:40;;;;;;;3.22;0.88;;;18.10;55.50;;;;;;5382237;26;20006;-51
2024/04/19 08:11:27;;;;;;;2.15;0.80;;;18.20;55.40;;;;;;5384643;26;20465;-49
2024/04/19 08:14:12;;;;;;;1.30;0.70;;;18.30;55.30;;;;;;5420046;26;20076;-47
2024/04/19 08:16:56;;;;;;;1.38;0.70;;;18.30;55.10;;;;;;5397403;26;20014;-50
2024/04/19 08:19:41;;;;;;;1.92;0.75;;;18.40;55.10;;;;;;5389546;26;20061;-50
2024/04/19 08:22:25;;;;;;;1.92;0.75;;;18.40;55.30;;;;;;5389429;26;20010;-50
2024/04/19 08:25:13;;;;;;;1.27;0.52;;;18.30;54.70;;;;;;5384878;26;20412;-51
2024/04/19 08:27:58;;;;;;;2.42;0.80;;;18.30;54.70;;;;;;5398056;26;20513;-50
2024/04/19 08:30:42;;;;;;;0.95;0.60;;;18.20;54.50;;;;;;5387190;26;20007;-50
2024/04/19 08:33:27;;;;;;;2.25;0.80;;;18.20;54.60;;;;;;5384055;26;20256;-53
2024/04/19 08:36:12;;;;;;;0.90;0.52;;;18.20;54.70;;;;;;5396808;26;20088;-52
2024/04/19 08:38:56;;;;;;;1.23;0.50;;;18.20;54.60;;;;;;5367364;26;20526;-47
2024/04/19 08:41:44;;;;;;;0.68;0.47;;;18.20;54.60;;;;;;5382601;26;20086;-49
2024/04/19 08:44:30;;;;;;;1.75;0.77;;;18.20;54.50;;;;;;5379515;26;20015;-50
2024/04/19 08:47:16;;;;;;;1.50;0.70;;;18.30;54.60;;;;;;5388109;26;20010;-52
2024/04/19 08:50:04;;;;;;;1.20;0.50;;;18.20;54.20;;;;;;5399503;26;20018;-48
2024/04/19 08:52:50;;;;;;;3.03;0.60;;;18.30;54.40;;;;;;5384522;26;20006;-51
2024/04/19 08:55:41;;;;;;;0.93;0.60;;;18.30;54.20;;;;;;5401609;26;20014;-51
2024/04/19 08:58:27;;;;;;;1.38;0.50;;;18.40;54.30;;;;;;5401285;26;20006;-52
2024/04/19 09:01:13;;;;;;;0.98;0.50;;;18.40;54.10;;;;;;5391712;26;20038;-51
2024/04/19 09:04:00;;;;;;;0.77;0.38;;;18.60;54.20;;;;;;5377506;26;20088;-46
2024/04/19 09:06:45;;;;;;;1.67;0.95;;;18.60;54.10;;;;;;5378527;26;20014;-50
2024/04/19 09:09:31;;;;;;;0.93;0.40;;;18.60;54.00;;;;;;5382401;26;20120;-48
2024/04/19 09:12:16;;;;;;;0.80;0.47;;;18.70;54.10;;;;;;5378109;26;20088;-50
2024/04/19 09:15:00;;;;;;;0.90;0.43;;;18.70;54.00;;;;;;5380251;26;20369;-53
2024/04/19 09:17:48;;;;;;;0.60;0.40;;;18.70;54.00;;;;;;5385018;26;20106;-49
2024/04/19 09:20:33;;;;;;;2.38;1.30;;;18.70;53.90;;;;;;5383086;26;20289;-48
2024/04/19 09:23:19;;;;;;;0.80;0.43;;;18.80;54.10;;;;;;5394460;26;20009;-51
2024/04/19 09:26:04;;;;;;;1.17;0.50;;;18.80;54.00;;;;;;5377142;26;20354;-53
2024/04/19 09:28:53;;;;;;;0.65;0.40;;;18.80;53.90;;;;;;5385246;26;20014;-48
2024/04/19 09:31:42;;;;;;;0.82;0.50;;;18.90;54.00;;;;;;5392577;26;20014;-53
2024/04/19 09:34:28;;;;;;;1.00;0.50;;;18.90;53.90;;;;;;5383199;26;20080;-53
2024/04/19 09:37:13;;;;;;;0.30;0.30;;;19.00;53.90;;;;;;5383786;26;20314;-52
2024/04/19 09:40:00;;;;;;;0.65;0.50;;;19.10;53.90;;;;;;5374072;26;20087;-48
2024/04/19 09:42:47;;;;;;;0.40;0.25;;;19.30;53.90;;;;;;5378317;26;20061;-51
2024/04/19 09:45:41;;;;;;;0.75;0.30;;;19.50;53.90;;;;;;5352250;26;21015;-46
2024/04/19 09:48:37;;;;;;;0.73;0.50;;;19.70;53.90;;;;;;5394755;26;20072;-54
2024/04/19 09:51:29;;;;;;;3.75;1.23;;;19.90;53.90;;;;;;5381847;26;20010;-50
2024/04/19 09:54:16;;;;;;;0.43;0.30;;;20.00;53.80;;;;;;5393176;26;20079;-52
2024/04/19 09:57:03;;;;;;;1.13;0.47;;;20.20;53.80;;;;;;5381301;26;20396;-53
2024/04/19 09:59:48;;;;;;;0.43;0.38;;;20.40;53.80;;;;;;5370524;26;20007;-50
2024/04/19 10:02:35;;;;;;;0.63;0.40;;;20.60;53.80;;;;;;5392305;26;20076;-51
2024/04/19 10:05:21;;;;;;;1.75;0.50;;;20.80;53.80;;;;;;5384125;26;20452;-51
2024/04/19 10:08:08;;;;;;;2.25;1.27;;;21.10;53.90;;;;;;5382817;26;20010;-51
2024/04/19 10:10:54;;;;;;;1.17;0.43;;;21.30;53.90;;;;;;5387962;26;20011;-51
2024/04/19 10:13:39;;;;;;;0.17;0.17;;;21.60;54.00;;;;;;5388576;26;20068;-50
2024/04/19 10:16:24;;;;;;;0.50;0.40;;;21.80;53.90;;;;;;5364806;26;20080;-50
2024/04/19 10:19:12;;;;;;;0.43;0.43;;;22.00;53.90;;;;;;5385602;26;20002;-50
2024/04/19 10:22:02;;;;;;;0.20;0.20;;;22.10;53.80;;;;;;5380362;26;20081;-56
2024/04/19 10:25:01;;;;;;;1.02;0.40;;;22.20;53.80;;;;;;5396609;26;20022;-49
2024/04/19 10:27:46;;;;;;;0.17;0.17;;;22.30;53.80;;;;;;5391430;26;20089;-50
2024/04/19 10:30:32;;;;;;;0.77;0.22;;;22.30;53.70;;;;;;5348315;26;20121;-47
2024/04/19 10:33:16;;;;;;;1.25;0.30;;;22.30;53.70;;;;;;5395715;26;20595;-52
2024/04/19 10:36:02;;;;;;;0.32;0.20;;;22.20;53.70;;;;;;5400229;26;20060;-50
2024/04/19 10:38:47;;;;;;;0.35;0.25;;;22.10;53.70;;;;;;5364158;26;20528;-48
2024/04/19 10:41:31;;;;;;;1.08;0.47;;;22.00;53.60;;;;;;5365948;26;20466;-54
2024/04/19 10:44:16;;;;;;;0.22;0.22;;;21.90;53.50;;;;;;5389855;26;20010;-51
2024/04/19 10:47:00;;;;;;;0.30;0.30;;;21.80;53.40;;;;;;5398038;26;20381;-51
2024/04/19 10:49:45;;;;;;;0.15;0.15;;;21.70;53.30;;;;;;5397408;26;20009;-48
2024/04/19 10:52:37;;;;;;;0.40;0.40;;;21.70;53.40;;;;;;5356250;26;20007;-49
2024/04/19 10:55:23;;;;;;;0.75;0.30;;;21.60;53.20;;;;;;5383811;26;20061;-54
2024/04/19 10:58:08;;;;;;;0.30;0.20;;;21.60;53.30;;;;;;5395660;26;20014;-51
2024/04/19 11:00:53;;;;;;;0.30;0.30;;;21.50;53.10;;;;;;5387657;26;20014;-49
2024/04/19 11:03:39;;;;;;;0.10;0.10;;;21.50;53.10;;;;;;5381783;26;20006;-50
2024/04/19 11:06:25;;;;;;;0.77;0.30;;;21.50;52.90;;;;;;5383039;26;20026;-50
2024/04/19 11:09:11;;;;;;;0.43;0.32;;;21.50;52.90;;;;;;5383756;26;20342;-48
2024/04/19 11:11:56;;;;;;;1.13;0.50;;;21.40;53.10;;;;;;5388604;26;20707;-49
2024/04/19 11:14:41;;;;;;;2.00;0.85;;;21.40;52.80;;;;;;5379570;26;20073;-48
2024/04/19 11:17:26;;;;;;;1.38;0.65;;;21.50;52.90;;;;;;5360819;26;20434;-50
2024/04/19 11:20:11;;;;;;;1.38;0.50;;;21.50;52.80;;;;;;5364147;26;20023;-50
2024/04/19 11:23:01;;;;;;;2.67;0.60;;;21.60;52.90;;;;;;5365661;26;20029;-53
2024/04/19 11:25:46;;;;;;;1.45;0.60;;;21.50;52.60;;;;;;5348949;26;20472;-52
2024/04/19 11:28:31;;;;;;;2.03;0.80;;;21.60;52.80;;;;;;5347212;26;20027;-52
2024/04/19 11:31:15;;;;;;;1.50;0.70;;;21.60;52.70;;;;;;5337229;26;20014;-50
2024/04/19 11:34:00;;;;;;;1.40;1.02;;;21.60;52.60;;;;;;5364849;26;20481;-48
2024/04/19 11:36:45;;;;;;;1.77;0.73;;;21.60;52.70;;;;;;5324166;26;20015;-51
2024/04/19 11:39:30;;;;;;;1.65;0.82;;;21.60;52.60;;;;;;5357588;26;20023;-49
2024/04/19 11:42:15;;;;;;;2.13;0.85;;;21.60;52.60;;;;;;5352565;26;20023;-52
2024/04/19 11:45:04;;;;;;;2.15;0.90;;;21.60;52.60;;;;;;5325484;26;20015;-48
2024/04/19 11:47:50;;;;;;;1.60;0.73;;;21.50;52.40;;;;;;5337267;26;20068;-52
2024/04/19 11:50:36;;;;;;;1.42;0.90;;;21.50;52.40;;;;;;5348695;26;20422;-58
2024/04/19 11:53:21;;;;;;;1.25;0.80;;;21.70;52.60;;;;;;5348502;26;20014;-50
2024/04/19 11:56:05;;;;;;;1.38;0.80;;;21.80;52.60;;;;;;5351610;26;20014;-50
2024/04/19 11:58:52;;;;;;;1.52;0.75;;;21.90;52.60;;;;;;5350198;26;20011;-47
2024/04/19 12:01:37;;;;;;;4.68;0.95;;;22.00;52.60;;;;;;5343478;26;20058;-54
2024/04/19 12:04:21;;;;;;;1.20;0.40;;;22.10;52.60;;;;;;5372039;26;20455;-50
2024/04/19 12:07:06;;;;;;;2.58;0.80;;;22.20;52.70;;;;;;5365569;26;20536;-48
2024/04/19 12:09:51;;;;;;;0.85;0.70;;;22.20;52.60;;;;;;5348120;26;20018;-49
2024/04/19 12:12:35;;;;;;;3.65;1.00;;;22.20;52.60;;;;;;5350210;26;20075;-50
2024/04/19 12:15:20;;;;;;;1.25;0.60;;;22.30;52.70;;;;;;5360437;26;20609;-53
2024/04/19 12:18:05;;;;;;;0.90;0.52;;;22.40;52.80;;;;;;5357070;26;20511;-52
2024/04/19 12:20:50;;;;;;;1.52;0.63;;;22.60;52.90;;;;;;5335890;26;20023;-49
2024/04/19 12:23:35;;;;;;;1.02;0.57;;;22.80;52.90;;;;;;5336073;26;20019;-48
2024/04/19 12:26:19;;;;;;;1.60;0.68;;;23.10;53.10;;;;;;5349120;26;20015;-54
2024/04/19 12:29:05;;;;;;;2.97;0.70;;;23.30;53.00;;;;;;5335126;26;20425;-49
2024/04/19 12:31:50;;;;;;;1.00;0.80;;;23.60;53.10;;;;;;5348686;26;20438;-48
2024/04/19 12:34:35;;;;;;;0.85;0.50;;;23.70;53.00;;;;;;5348754;26;20075;-49
2024/04/19 12:37:20;;;;;;;1.23;0.52;;;23.80;52.90;;;;;;5350455;26;20511;-48
2024/04/19 12:40:05;;;;;;;1.73;0.60;;;24.00;53.00;;;;;;5346106;26;20093;-52
2024/04/19 12:42:50;;;;;;;1.25;0.40;;;24.20;53.10;;;;;;5348948;26;20015;-51
2024/04/19 12:45:34;;;;;;;1.17;0.65;;;24.30;53.10;;;;;;5342601;26;20417;-53
2024/04/19 12:48:21;;;;;;;0.77;0.50;;;24.40;53.10;;;;;;5373583;26;20077;-49
2024/04/19 12:51:05;;;;;;;1.08;0.68;;;24.50;53.20;;;;;;5368779;26;20420;-54
2024/04/19 12:53:57;;;;;;;0.75;0.43;;;24.50;53.10;;;;;;5350022;26;20015;-55
2024/04/19 12:56:41;;;;;;;1.27;0.47;;;24.70;53.20;;;;;;5359659;26;20054;-50
2024/04/19 12:59:26;;;;;;;0.80;0.40;;;24.90;53.40;;;;;;5351259;26;20015;-50
2024/04/19 13:02:11;;;;;;;0.90;0.40;;;25.00;53.20;;;;;;5341953;26;20012;-51
2024/04/19 13:04:55;;;;;;;0.50;0.30;;;25.10;53.00;;;;;;5340284;26;20011;-50
2024/04/19 13:07:41;;;;;;;0.45;0.35;;;25.20;52.90;;;;;;5349959;26;20030;-51
2024/04/19 13:10:26;;;;;;;0.70;0.30;;;25.20;52.80;;;;;;5355341;26;20018;-51
2024/04/19 13:13:12;;;;;;;0.60;0.30;;;25.20;52.80;;;;;;5346470;26;20015;-51
2024/04/19 13:15:57;;;;;;;0.70;0.32;;;25.20;52.80;;;;;;5348938;26;20038;-53
2024/04/19 13:18:43;;;;;;;0.80;0.30;;;25.30;52.80;;;;;;5391827;26;20570;-52
2024/04/19 13:21:28;;;;;;;0.82;0.60;;;25.30;52.60;;;;;;5362853;26;20351;-50
2024/04/19 13:24:13;;;;;;;0.85;0.40;;;25.30;52.50;;;;;;5384116;26;20069;-50
2024/04/19 13:26:58;;;;;;;0.88;0.40;;;25.40;52.40;;;;;;5385938;26;20005;-48
2024/04/19 13:29:43;;;;;;;0.75;0.30;;;25.50;52.40;;;;;;5383117;26;20076;-48
2024/04/19 13:32:28;;;;;;;0.50;0.40;;;25.60;52.30;;;;;;5390197;26;20363;-48
2024/04/19 13:35:14;;;;;;;0.95;0.30;;;25.70;52.00;;;;;;5382808;26;20010;-49
2024/04/19 13:38:00;;;;;;;0.95;0.43;;;25.90;51.90;;;;;;5381655;26;20035;-48
2024/04/19 13:40:44;;;;;;;0.82;0.40;;;26.00;51.70;;;;;;5385975;26;20018;-49
2024/04/19 13:43:30;;;;;;;0.25;0.20;;;26.10;51.60;;;;;;5374948;26;20014;-51
2024/04/19 13:46:15;;;;;;;0.68;0.38;;;26.20;51.40;;;;;;5382799;26;20018;-52
2024/04/19 13:49:00;;;;;;;0.70;0.40;;;26.30;51.30;;;;;;5382902;26;20018;-50
2024/04/19 13:51:44;;;;;;;0.38;0.30;;;26.40;51.10;;;;;;5382623;26;20061;-49
2024/04/19 13:54:29;;;;;;;0.20;0.20;;;26.50;51.00;;;;;;5397990;26;20523;-51
2024/04/19 13:57:14;;;;;;;0.45;0.28;;;26.50;50.90;;;;;;5381262;26;20092;-47
2024/04/19 13:59:59;;;;;;;0.30;0.20;;;26.40;51.00;;;;;;5397627;26;20015;-49
2024/04/19 14:02:44;;;;;;;0.57;0.25;;;26.30;51.10;;;;;;5381955;26;20506;-51
2024/04/19 14:05:29;;;;;;;0.20;0.10;;;26.10;51.30;;;;;;5382223;26;20073;-51
2024/04/19 14:08:14;;;;;;;0.47;0.30;;;25.80;51.30;;;;;;5382061;26;20007;-47
2024/04/19 14:10:59;;;;;;;0.70;0.20;;;25.60;51.60;;;;;;5380675;26;20416;-52
2024/04/19 14:13:44;;;;;;;0.30;0.30;;;25.40;51.90;;;;;;5387947;26;20010;-51
2024/04/19 14:16:29;;;;;;;0.30;0.30;;;25.20;52.00;;;;;;5336638;26;20579;-51
2024/04/19 14:19:15;;;;;;;0.70;0.52;;;25.00;52.10;;;;;;5360667;26;20521;-49
2024/04/19 14:22:00;;;;;;;0.90;0.45;;;24.90;52.10;;;;;;5338728;26;20007;-52
2024/04/19 14:24:45;;;;;;;0.22;0.20;;;24.90;52.20;;;;;;5347501;26;20183;-48